Terminal Aerodrome Forecast
Issued by NWS Albany, NY

Home | Current Version | Previous Version | Text Only | Print | Product List | Glossary On
Versions: 1 2 3 4 5 6 7 8 9 10 11 12 13
524
FTUS41 KALY 191720
TAFALB
TAF
KALB 191720Z 1918/2018 19015G22KT P6SM SKC
     FM200100 20008KT P6SM SCT060 BKN250
     FM200500 27006KT P6SM SCT250
     FM201400 31010KT P6SM SKC=

USA.gov is the U.S. government's official web portal to all federal, state and local government web resources and services.